Time;durP1;ratioP1;P1;durP2;ratioP2;P2;SDS_P1;SDS_P2;PMS_P1;PMS_P2;Temp;Humidity;BMP_temperature;BMP_pressure;BME280_temperature;BME280_humidity;BME280_pressure;Samples;Min_cycle;Max_cycle;Signal;HPM_P1;HPM_P2
2022/03/21 00:00:27;;;;;;;66.20;36.78;;;6.60;63.90;;;;;;5059557;28;20181;-85
2022/03/21 00:02:55;;;;;;;73.53;40.60;;;6.60;64.00;;;;;;5060363;28;20212;-88
2022/03/21 00:05:20;;;;;;;74.72;38.42;;;6.50;64.10;;;;;;5056827;28;20222;-86
2022/03/21 00:07:46;;;;;;;88.73;40.63;;;6.40;64.30;;;;;;5043692;28;20209;-86
2022/03/21 00:10:12;;;;;;;79.30;39.27;;;6.40;64.40;;;;;;5039103;28;20166;-86
2022/03/21 00:12:39;;;;;;;77.77;39.00;;;6.40;64.60;;;;;;5039764;28;20209;-86
2022/03/21 00:15:09;;;;;;;71.00;39.70;;;6.30;64.70;;;;;;5050532;28;20204;-86
2022/03/21 00:17:37;;;;;;;70.65;38.25;;;6.20;64.80;;;;;;5064118;28;20204;-86
2022/03/21 00:20:03;;;;;;;80.50;42.78;;;6.20;65.20;;;;;;5066067;28;20174;-86
2022/03/21 00:22:29;;;;;;;65.00;36.53;;;6.20;65.20;;;;;;5061895;28;20185;-85
2022/03/21 00:24:55;;;;;;;79.33;40.27;;;6.20;65.20;;;;;;5074146;28;20223;-86
2022/03/21 00:27:20;;;;;;;73.05;40.05;;;6.40;65.10;;;;;;5069728;28;20220;-86
2022/03/21 00:29:47;;;;;;;73.33;39.83;;;6.30;65.00;;;;;;5048805;28;20232;-86
2022/03/21 00:32:13;;;;;;;67.13;37.25;;;6.30;65.00;;;;;;5063186;28;20426;-86
2022/03/21 00:34:38;;;;;;;71.43;37.20;;;6.30;65.10;;;;;;5065244;28;20177;-86
2022/03/21 00:37:04;;;;;;;73.53;39.57;;;6.20;65.10;;;;;;5064395;28;20209;-86
2022/03/21 00:39:30;;;;;;;77.17;39.80;;;6.30;65.30;;;;;;5046886;28;20662;-86
2022/03/21 00:41:57;;;;;;;76.23;39.23;;;6.40;65.20;;;;;;5053357;28;20436;-86
2022/03/21 00:44:23;;;;;;;72.93;36.83;;;6.40;65.00;;;;;;5038623;28;20268;-86
2022/03/21 00:46:49;;;;;;;69.33;37.70;;;6.50;64.80;;;;;;5036907;28;20221;-86
2022/03/21 00:49:14;;;;;;;69.93;38.00;;;6.30;64.80;;;;;;5035068;28;20468;-86
2022/03/21 00:51:43;;;;;;;66.93;38.93;;;6.20;64.80;;;;;;5036143;28;20611;-84
2022/03/21 00:54:09;;;;;;;76.65;39.55;;;6.20;65.20;;;;;;5040188;28;20440;-84
2022/03/21 00:56:35;;;;;;;67.67;37.70;;;6.20;65.20;;;;;;5066567;22;20197;-88
2022/03/21 00:59:00;;;;;;;65.23;34.60;;;6.20;65.20;;;;;;5055560;28;20166;-89
2022/03/21 01:01:26;;;;;;;71.50;39.87;;;6.20;65.20;;;;;;5037079;28;20539;-89
2022/03/21 01:03:52;;;;;;;76.10;38.87;;;6.20;65.40;;;;;;5036652;28;20177;-89
2022/03/21 01:06:17;;;;;;;76.37;40.50;;;6.20;65.30;;;;;;5035905;28;20208;-90
2022/03/21 01:08:43;;;;;;;67.37;35.37;;;6.10;65.50;;;;;;5016635;28;20250;-89
2022/03/21 01:11:09;;;;;;;83.77;37.97;;;6.00;65.70;;;;;;5021711;28;20170;-88
2022/03/21 01:13:41;;;;;;;77.50;38.57;;;5.90;66.00;;;;;;5021929;28;20174;-89
2022/03/21 01:16:07;;;;;;;62.78;36.97;;;5.80;66.10;;;;;;5034787;28;20158;-88
2022/03/21 01:18:33;;;;;;;77.07;36.37;;;5.90;66.30;;;;;;5015994;28;20210;-88
2022/03/21 01:20:59;;;;;;;65.87;37.43;;;6.00;66.30;;;;;;5016326;28;20465;-88
2022/03/21 01:23:24;;;;;;;71.23;39.80;;;6.00;66.20;;;;;;5032022;28;20192;-89
2022/03/21 01:25:50;;;;;;;75.43;38.20;;;6.00;66.00;;;;;;5033626;28;20420;-88
2022/03/21 01:28:16;;;;;;;75.43;39.57;;;6.20;65.90;;;;;;5015882;28;20231;-88
2022/03/21 01:30:42;;;;;;;71.00;39.60;;;6.10;65.80;;;;;;5033405;28;20431;-88
2022/03/21 01:33:07;;;;;;;84.33;39.00;;;6.10;65.90;;;;;;5015775;28;20185;-87
2022/03/21 01:35:33;;;;;;;70.83;38.10;;;6.00;65.90;;;;;;5015027;28;20435;-88
2022/03/21 01:37:59;;;;;;;73.25;37.45;;;6.00;66.00;;;;;;5033350;28;20206;-89
2022/03/21 01:40:25;;;;;;;78.03;40.53;;;5.80;66.10;;;;;;5015831;28;20225;-88
2022/03/21 01:42:51;;;;;;;79.93;40.63;;;5.80;66.40;;;;;;5015347;28;20511;-88
2022/03/21 01:45:19;;;;;;;80.35;42.28;;;5.80;66.60;;;;;;5016031;28;20447;-89
2022/03/21 01:47:46;;;;;;;77.65;40.58;;;5.90;66.70;;;;;;5033543;28;20198;-89
2022/03/21 01:50:14;;;;;;;93.70;40.78;;;6.00;66.50;;;;;;5033358;28;20166;-88
2022/03/21 01:52:42;;;;;;;75.80;39.45;;;5.90;66.60;;;;;;5016082;28;20524;-88
2022/03/21 01:57:54;;;;;;;78.40;39.08;;;5.90;66.60;;;;;;5034153;28;20275;-87
2022/03/21 02:00:21;;;;;;;66.72;38.17;;;5.80;66.60;;;;;;5033427;28;20204;-89
2022/03/21 02:02:47;;;;;;;77.40;40.33;;;5.90;66.80;;;;;;5015567;28;20269;-89
2022/03/21 02:05:13;;;;;;;74.50;40.70;;;5.80;66.70;;;;;;5033225;28;20197;-88
2022/03/21 02:07:39;;;;;;;77.90;40.60;;;5.70;67.10;;;;;;5015250;28;20460;-88
2022/03/21 02:10:06;;;;;;;78.28;40.40;;;5.60;67.20;;;;;;5015435;28;20570;-88
2022/03/21 02:12:33;;;;;;;80.85;41.45;;;5.60;67.50;;;;;;5015814;28;20181;-88
2022/03/21 02:14:59;;;;;;;81.07;41.13;;;5.50;67.60;;;;;;5034019;28;20185;-87
2022/03/21 02:17:27;;;;;;;80.13;43.47;;;5.60;67.60;;;;;;5034930;28;20198;-88
2022/03/21 02:19:54;;;;;;;78.13;43.33;;;5.60;67.60;;;;;;5017246;28;20186;-87
2022/03/21 02:22:47;;;;;;;78.50;41.70;;;5.60;67.50;;;;;;5017744;28;20228;-88
2022/03/21 02:25:34;;;;;;;82.80;42.13;;;5.60;67.50;;;;;;5019441;28;20197;-88
2022/03/21 02:28:08;;;;;;;73.85;40.13;;;5.60;67.50;;;;;;5020910;28;20205;-88
2022/03/21 02:30:41;;;;;;;78.82;41.33;;;5.60;67.50;;;;;;5017039;28;20178;-89
2022/03/21 02:33:08;;;;;;;85.57;40.72;;;5.60;67.40;;;;;;5020551;28;20166;-89
2022/03/21 02:35:35;;;;;;;87.00;43.78;;;5.60;67.50;;;;;;5022093;28;20174;-88
2022/03/21 02:38:01;;;;;;;74.03;39.90;;;5.50;67.60;;;;;;5035172;28;20197;-89
2022/03/21 02:40:28;;;;;;;85.95;42.63;;;5.50;67.90;;;;;;5031541;28;20182;-89
2022/03/21 02:42:53;;;;;;;75.28;41.40;;;5.50;68.00;;;;;;5035293;28;20288;-88
2022/03/21 02:45:19;;;;;;;88.40;43.13;;;5.40;68.20;;;;;;5032344;28;20201;-89
2022/03/21 02:47:45;;;;;;;85.70;44.20;;;5.40;68.20;;;;;;5036832;28;20408;-88
2022/03/21 02:50:21;;;;;;;91.17;44.47;;;5.40;68.30;;;;;;5040530;28;20416;-88
2022/03/21 02:52:49;;;;;;;77.38;42.85;;;5.40;68.30;;;;;;5037180;28;20216;-87
2022/03/21 02:55:14;;;;;;;84.85;41.72;;;5.50;68.30;;;;;;5034729;28;20591;-88
2022/03/21 02:57:40;;;;;;;83.20;41.50;;;5.50;68.40;;;;;;5034928;28;20301;-88
2022/03/21 03:00:06;;;;;;;82.07;42.50;;;5.50;68.40;;;;;;5022266;28;20178;-88
2022/03/21 03:02:32;;;;;;;73.80;41.13;;;5.40;68.50;;;;;;5018524;28;20190;-88
2022/03/21 03:04:57;;;;;;;75.40;41.87;;;5.30;68.80;;;;;;5018384;28;20240;-88
2022/03/21 03:07:23;;;;;;;76.90;41.30;;;5.30;69.00;;;;;;5018648;28;20216;-89
2022/03/21 03:09:49;;;;;;;79.07;44.47;;;5.30;69.00;;;;;;5018504;28;20180;-88
2022/03/21 03:12:14;;;;;;;76.33;42.40;;;5.20;69.00;;;;;;5018660;28;20214;-88
2022/03/21 03:14:40;;;;;;;89.27;44.77;;;5.20;69.20;;;;;;5018009;28;20181;-88
2022/03/21 03:17:06;;;;;;;82.90;43.17;;;5.20;70.00;;;;;;5018782;28;20224;-90
2022/03/21 03:19:32;;;;;;;84.97;43.47;;;5.20;69.40;;;;;;5021658;28;20251;-88
2022/03/21 03:21:57;;;;;;;99.22;44.60;;;5.10;69.50;;;;;;5018577;28;20512;-88
2022/03/21 03:24:26;;;;;;;85.27;42.63;;;5.00;69.50;;;;;;5018512;28;20283;-88
2022/03/21 03:26:52;;;;;;;85.45;43.78;;;5.00;69.60;;;;;;5035909;28;20928;-90
2022/03/21 03:29:18;;;;;;;84.47;47.13;;;4.90;69.80;;;;;;5036571;28;20214;-89
2022/03/21 03:31:44;;;;;;;96.32;43.75;;;5.00;70.00;;;;;;5020945;28;20412;-88
2022/03/21 03:34:11;;;;;;;81.40;42.08;;;4.80;70.20;;;;;;5023849;28;20579;-88
2022/03/21 03:36:38;;;;;;;92.85;44.05;;;4.80;70.40;;;;;;5031762;28;20174;-86
2022/03/21 03:39:05;;;;;;;81.88;43.55;;;4.80;70.50;;;;;;5018315;28;20188;-87
2022/03/21 03:41:30;;;;;;;83.03;43.60;;;4.90;70.50;;;;;;5018530;28;20315;-88
2022/03/21 03:43:57;;;;;;;94.27;44.27;;;4.90;70.30;;;;;;5035295;28;20182;-89
2022/03/21 03:46:23;;;;;;;102.93;44.30;;;5.00;70.10;;;;;;5017747;28;20182;-88
2022/03/21 03:48:49;;;;;;;86.32;44.33;;;4.90;70.20;;;;;;5017415;28;20205;-88
2022/03/21 03:51:16;;;;;;;91.10;40.15;;;4.90;70.40;;;;;;5017488;28;20642;-88
2022/03/21 03:53:42;;;;;;;88.70;43.45;;;4.90;70.30;;;;;;5017816;28;20186;-88
2022/03/21 03:56:08;;;;;;;86.95;42.97;;;4.70;70.40;;;;;;5017345;28;20552;-88
2022/03/21 03:58:35;;;;;;;83.47;42.28;;;4.70;70.90;;;;;;5035339;28;20242;-89
2022/03/21 04:01:04;;;;;;;90.40;44.95;;;4.90;70.80;;;;;;5018169;28;20205;-89
2022/03/21 04:03:44;;;;;;;82.85;44.58;;;4.80;70.70;;;;;;5036888;28;20240;-89
2022/03/21 04:06:21;;;;;;;100.05;43.85;;;4.80;70.80;;;;;;5018735;28;20177;-89
2022/03/21 04:08:48;;;;;;;91.88;43.80;;;4.80;71.20;;;;;;5020093;28;20220;-88
2022/03/21 04:11:14;;;;;;;79.93;40.10;;;5.00;70.90;;;;;;5020106;28;20638;-89
2022/03/21 04:13:40;;;;;;;91.47;44.93;;;4.90;70.50;;;;;;5023870;28;20204;-89
2022/03/21 04:16:06;;;;;;;90.50;45.95;;;4.80;70.60;;;;;;5022930;28;20413;-89
2022/03/21 04:18:33;;;;;;;83.80;42.72;;;4.80;70.80;;;;;;5025026;28;20205;-88
2022/03/21 04:20:59;;;;;;;82.95;42.22;;;5.00;70.70;;;;;;5036552;28;20269;-89
2022/03/21 04:23:25;;;;;;;95.95;45.55;;;5.00;70.40;;;;;;5017913;28;20181;-89
2022/03/21 04:25:50;;;;;;;91.30;45.17;;;4.90;70.40;;;;;;5035335;28;20174;-89
2022/03/21 04:28:17;;;;;;;98.23;42.67;;;4.90;70.40;;;;;;5022343;28;20476;-89
2022/03/21 04:30:43;;;;;;;98.93;46.45;;;4.90;70.40;;;;;;5019343;28;20273;-89
2022/03/21 04:33:10;;;;;;;95.22;43.53;;;4.90;70.40;;;;;;5017253;28;20182;-89
2022/03/21 04:35:37;;;;;;;96.68;43.20;;;4.80;70.40;;;;;;5035551;28;20170;-89
2022/03/21 04:38:12;;;;;;;95.32;44.65;;;4.70;70.50;;;;;;5018018;28;20625;-89
2022/03/21 04:40:38;;;;;;;91.28;42.88;;;4.50;70.70;;;;;;5018864;28;20196;-88
2022/03/21 04:43:04;;;;;;;94.70;45.42;;;4.50;71.00;;;;;;5024248;28;20182;-89
2022/03/21 04:45:29;;;;;;;84.83;43.30;;;4.40;71.30;;;;;;5018851;28;20516;-88
2022/03/21 04:47:55;;;;;;;90.93;43.70;;;4.60;71.30;;;;;;5034775;28;20287;-89
2022/03/21 04:50:24;;;;;;;92.87;42.77;;;4.60;71.30;;;;;;5016813;28;20261;-88
2022/03/21 04:52:50;;;;;;;82.82;43.33;;;4.60;71.20;;;;;;5018035;28;20404;-89
2022/03/21 04:55:16;;;;;;;91.03;44.33;;;4.60;71.20;;;;;;5018764;28;20527;-89
2022/03/21 04:57:42;;;;;;;99.03;45.73;;;4.60;71.40;;;;;;5022123;28;20806;-88
2022/03/21 05:00:08;;;;;;;95.20;43.87;;;4.50;71.70;;;;;;5031810;28;20169;-88
2022/03/21 05:02:34;;;;;;;90.20;43.70;;;4.50;71.80;;;;;;5020692;28;20421;-89
2022/03/21 05:05:00;;;;;;;81.70;41.07;;;4.50;71.90;;;;;;5019905;28;20208;-89
2022/03/21 05:07:25;;;;;;;91.30;43.90;;;4.50;71.80;;;;;;5025856;28;20666;-89
2022/03/21 05:09:52;;;;;;;83.00;42.37;;;;;;;;;;5025689;28;20785;-88
2022/03/21 05:12:17;;;;;;;89.38;41.45;;;4.60;71.20;;;;;;5025949;28;20424;-89
2022/03/21 05:14:43;;;;;;;87.53;44.73;;;4.50;71.90;;;;;;5019262;28;20177;-89
2022/03/21 05:17:10;;;;;;;90.47;45.40;;;4.40;71.70;;;;;;5024350;28;20815;-88
2022/03/21 05:19:36;;;;;;;96.50;42.33;;;4.30;71.40;;;;;;5023203;28;20264;-89
2022/03/21 05:22:06;;;;;;;91.25;41.22;;;4.40;71.50;;;;;;5032519;28;20289;-88
2022/03/21 05:35:54;;;;;;;84.78;43.92;;;4.00;72.70;;;;;;5035324;28;20170;-88
2022/03/21 05:35:57;;;;;;;88.90;39.95;;;3.80;72.70;;;;;;5035586;28;20804;-88
2022/03/21 05:38:26;;;;;;;81.43;39.20;;;0.70;71.30;;;;;;5035990;28;20240;-90
2022/03/21 05:40:56;;;;;;;100.72;41.50;;;3.70;73.60;;;;;;5031826;28;20366;-88
2022/03/21 05:43:23;;;;;;;84.85;42.17;;;3.70;74.00;;;;;;5044311;28;20181;-88
2022/03/21 05:45:49;;;;;;;95.10;41.58;;;3.70;74.30;;;;;;5038711;28;20180;-88
2022/03/21 05:51:00;;;;;;;82.13;37.65;;;4.20;73.30;;;;;;5056155;28;20206;-89
2022/03/21 05:53:27;;;;;;;82.17;40.10;;;4.30;73.10;;;;;;5039155;28;20219;-90
2022/03/21 05:55:55;;;;;;;86.25;41.92;;;4.30;72.80;;;;;;5064794;28;20415;-88
2022/03/21 05:58:21;;;;;;;88.47;42.40;;;;;;;;;;5041921;28;20212;-87
2022/03/21 06:00:47;;;;;;;84.35;40.95;;;4.50;72.20;;;;;;5043767;28;20192;-88
2022/03/21 06:03:12;;;;;;;84.70;41.37;;;4.60;71.80;;;;;;5036293;28;20181;-88
2022/03/21 06:05:40;;;;;;;77.57;39.10;;;;;;;;;;5035422;28;20184;-88
2022/03/21 06:08:06;;;;;;;80.10;41.33;;;;;;;;;;5016538;28;20467;-87
2022/03/21 06:10:32;;;;;;;82.38;41.15;;;;;;;;;;5016287;28;20184;-87
2022/03/21 06:13:01;;;;;;;80.70;38.30;;;;;;;;;;5016746;28;20174;-88
2022/03/21 06:15:26;;;;;;;79.57;38.78;;;5.70;69.60;;;;;;5018093;28;20184;-88
2022/03/21 06:17:57;;;;;;;72.97;36.97;;;6.00;68.60;;;;;;5016204;28;20201;-87
2022/03/21 06:20:23;;;;;;;72.05;36.15;;;;;;;;;;5016575;28;20178;-88
2022/03/21 06:22:49;;;;;;;70.43;36.17;;;;;;;;;;5020067;28;20231;-88
2022/03/21 06:25:15;;;;;;;68.90;35.60;;;7.50;64.90;;;;;;5020348;28;20268;-88
2022/03/21 06:27:41;;;;;;;69.53;34.50;;;8.40;61.90;;;;;;5038294;28;20255;-88
2022/03/21 06:30:08;;;;;;;66.28;35.33;;;9.20;59.40;;;;;;5020946;28;20178;-88
2022/03/21 06:32:35;;;;;;;55.63;34.70;;;9.30;59.50;;;;;;5020073;28;20231;-88
2022/03/21 06:35:01;;;;;;;60.47;33.47;;;9.70;56.60;;;;;;5018858;28;20181;-88
2022/03/21 06:37:27;;;;;;;59.45;34.13;;;9.70;55.70;;;;;;5019379;28;20206;-88
2022/03/21 06:39:53;;;;;;;59.78;34.97;;;;;;;;;;5019291;28;20227;-88
2022/03/21 06:42:21;;;;;;;63.55;35.17;;;9.40;54.40;;;;;;5019190;28;20205;-89
2022/03/21 06:44:50;;;;;;;59.30;35.20;;;;;;;;;;5026582;28;20173;-89
2022/03/21 06:47:17;;;;;;;56.95;32.65;;;;;;;;;;5040207;28;20729;-89
2022/03/21 06:49:43;;;;;;;66.03;36.60;;;8.80;54.80;;;;;;5024239;28;20662;-88
2022/03/21 06:52:09;;;;;;;77.97;36.93;;;8.50;55.40;;;;;;5002130;28;20281;-89
2022/03/21 06:54:36;;;;;;;57.92;32.75;;;8.30;56.80;;;;;;5018363;28;20416;-89
2022/03/21 06:57:02;;;;;;;71.32;36.80;;;7.90;57.00;;;;;;5035925;28;20649;-89
2022/03/21 06:59:29;;;;;;;67.00;36.70;;;;;;;;;;5029010;28;20243;-89
2022/03/21 07:01:56;;;;;;;65.10;34.08;;;;;;;;;;5019204;28;20178;-89
2022/03/21 07:04:23;;;;;;;62.90;33.67;;;7.50;58.70;;;;;;5036250;28;20177;-89
2022/03/21 07:06:49;;;;;;;64.70;35.45;;;7.30;60.20;;;;;;5037587;28;20194;-90
2022/03/21 07:09:15;;;;;;;60.03;31.88;;;7.20;60.70;;;;;;5020535;28;20174;-89
2022/03/21 07:11:41;;;;;;;69.73;34.83;;;6.90;61.40;;;;;;5020068;28;20178;-89
2022/03/21 07:14:07;;;;;;;64.37;33.47;;;6.70;62.70;;;;;;5050773;28;20204;-88
2022/03/21 07:16:32;;;;;;;61.43;34.40;;;6.60;63.90;;;;;;5057583;28;20663;-89
2022/03/21 07:18:58;;;;;;;72.70;35.10;;;6.50;64.60;;;;;;5038747;28;20424;-90
2022/03/21 07:21:24;;;;;;;55.50;30.90;;;6.30;65.30;;;;;;5038594;28;20299;-89
2022/03/21 07:23:50;;;;;;;61.90;32.70;;;6.30;66.10;;;;;;5055911;28;20804;-89
2022/03/21 07:26:15;;;;;;;57.70;29.73;;;6.20;66.80;;;;;;5038173;28;20185;-89
2022/03/21 07:28:41;;;;;;;65.07;33.80;;;6.30;67.50;;;;;;5025798;28;20456;-89
2022/03/21 07:31:11;;;;;;;57.25;30.25;;;6.40;67.70;;;;;;5017440;28;20663;-89
2022/03/21 07:33:42;;;;;;;58.85;30.80;;;6.60;67.50;;;;;;5019419;28;20209;-88
2022/03/21 07:36:20;;;;;;;48.22;26.88;;;6.70;67.30;;;;;;5024061;28;20173;-89
2022/03/21 07:38:46;;;;;;;54.33;28.55;;;6.70;67.40;;;;;;5020941;28;20244;-89
2022/03/21 07:41:13;;;;;;;61.90;31.57;;;;;;;;;;5023336;28;20182;-89
2022/03/21 07:43:38;;;;;;;55.65;30.92;;;6.90;66.60;;;;;;5017609;28;20209;-90
2022/03/21 07:48:49;;;;;;;58.63;27.50;;;7.30;66.10;;;;;;5057904;28;20231;-89
2022/03/21 07:51:15;;;;;;;56.78;29.67;;;7.30;66.60;;;;;;5049189;28;20177;-90
2022/03/21 07:53:41;;;;;;;56.30;28.43;;;;;;;;;;5040105;28;20184;-88
2022/03/21 07:56:09;;;;;;;55.17;29.95;;;;;;;;;;5038155;28;20491;-88
2022/03/21 07:58:35;;;;;;;52.38;29.05;;;;;;;;;;5036831;28;20346;-89
2022/03/21 08:01:02;;;;;;;57.85;28.67;;;7.60;65.70;;;;;;5036981;28;20205;-89
2022/03/21 08:03:28;;;;;;;49.92;26.85;;;7.70;66.40;;;;;;5035254;28;20208;-88
2022/03/21 08:05:59;;;;;;;51.40;27.75;;;;;;;;;;5017125;28;20173;-88
2022/03/21 08:08:26;;;;;;;44.92;24.92;;;7.90;65.90;;;;;;5002134;28;20674;-90
2022/03/21 08:10:53;;;;;;;52.58;25.90;;;7.90;66.50;;;;;;5015759;28;20173;-88
2022/03/21 08:13:19;;;;;;;49.42;26.05;;;7.90;66.50;;;;;;5027707;28;20262;-88
2022/03/21 08:15:46;;;;;;;54.50;26.75;;;8.00;66.50;;;;;;5055353;28;20181;-90
2022/03/21 08:18:12;;;;;;;50.67;27.13;;;8.20;66.50;;;;;;5036713;28;20279;-90
2022/03/21 08:20:43;;;;;;;45.25;25.10;;;8.30;66.70;;;;;;5038253;28;20637;-90
2022/03/21 08:23:14;;;;;;;62.60;27.52;;;8.40;66.60;;;;;;5038389;28;20180;-90
2022/03/21 08:25:48;;;;;;;42.50;23.52;;;8.50;66.20;;;;;;5036324;28;20208;-91
2022/03/21 08:28:14;;;;;;;51.92;26.88;;;;;;;;;;5055764;28;20226;-89
2022/03/21 08:30:41;;;;;;;44.88;24.13;;;8.80;65.00;;;;;;5038658;28;20181;-90
2022/03/21 08:33:10;;;;;;;45.60;23.58;;;8.80;65.60;;;;;;5028161;28;20185;-90
2022/03/21 08:35:38;;;;;;;44.97;24.08;;;9.00;65.20;;;;;;5029844;28;20644;-90
2022/03/21 08:38:06;;;;;;;50.67;23.20;;;9.20;64.80;;;;;;5037463;28;20209;-89
2022/03/21 08:40:32;;;;;;;38.45;20.63;;;9.30;64.60;;;;;;5020949;28;20242;-90
2022/03/21 08:42:57;;;;;;;46.58;25.23;;;9.30;64.40;;;;;;5029328;28;20211;-91
2022/03/21 08:45:23;;;;;;;41.77;22.07;;;9.30;64.10;;;;;;5035840;28;20185;-89
2022/03/21 08:47:55;;;;;;;39.70;22.40;;;9.50;63.80;;;;;;5054479;28;20205;-90
2022/03/21 08:50:21;;;;;;;36.35;21.67;;;9.70;62.50;;;;;;5051950;28;20166;-90
2022/03/21 08:52:48;;;;;;;37.93;21.27;;;9.80;63.10;;;;;;5017499;28;20686;-89
2022/03/21 08:55:15;;;;;;;41.78;20.85;;;9.90;62.80;;;;;;5017037;28;20716;-90
2022/03/21 08:57:41;;;;;;;37.13;22.10;;;10.10;62.50;;;;;;5017045;28;20217;-88
2022/03/21 09:00:08;;;;;;;42.77;22.97;;;10.30;62.00;;;;;;5033980;28;20257;-89
2022/03/21 09:02:34;;;;;;;43.30;21.95;;;10.20;61.40;;;;;;5028246;28;20436;-89
2022/03/21 09:05:14;;;;;;;36.05;21.42;;;10.40;61.20;;;;;;5043344;28;20251;-89
2022/03/21 09:07:41;;;;;;;40.83;21.67;;;10.50;61.00;;;;;;5018260;28;20275;-89
2022/03/21 09:10:10;;;;;;;32.17;18.45;;;10.60;61.00;;;;;;5050027;28;20201;-89
2022/03/21 09:12:36;;;;;;;37.53;19.52;;;10.60;61.30;;;;;;5021155;28;20518;-88
2022/03/21 09:15:01;;;;;;;36.53;19.20;;;10.80;61.60;;;;;;5029572;28;20209;-89
2022/03/21 09:17:28;;;;;;;42.13;22.50;;;10.90;61.40;;;;;;5026041;28;20240;-89
2022/03/21 09:19:55;;;;;;;33.90;18.92;;;11.10;61.30;;;;;;5021670;28;20523;-89
2022/03/21 09:22:21;;;;;;;30.83;17.77;;;11.20;60.90;;;;;;5017485;28;20603;-89
2022/03/21 09:24:47;;;;;;;29.53;19.60;;;11.30;60.50;;;;;;5016811;28;20261;-89
2022/03/21 09:27:13;;;;;;;35.20;19.13;;;11.40;60.10;;;;;;5018967;28;20257;-89
2022/03/21 09:29:40;;;;;;;35.27;18.57;;;11.00;60.00;;;;;;5019528;28;20302;-91
2022/03/21 09:32:06;;;;;;;30.75;19.10;;;10.70;60.50;;;;;;5025591;28;20420;-89
2022/03/21 09:34:33;;;;;;;28.02;17.35;;;11.00;61.00;;;;;;5032199;28;20189;-89
2022/03/21 09:37:00;;;;;;;31.70;17.45;;;11.30;61.30;;;;;;5039471;28;20214;-89
2022/03/21 09:39:26;;;;;;;32.03;18.38;;;11.60;60.60;;;;;;5071003;28;20191;-88
2022/03/21 09:41:52;;;;;;;27.60;15.13;;;11.80;60.00;;;;;;5012828;28;20209;-88
2022/03/21 09:44:18;;;;;;;27.23;17.25;;;11.90;59.40;;;;;;5036943;28;20416;-89
2022/03/21 09:46:47;;;;;;;30.15;17.25;;;12.00;59.00;;;;;;5039214;28;20261;-90
2022/03/21 09:49:17;;;;;;;26.88;16.05;;;12.00;58.00;;;;;;5035429;28;20235;-89
2022/03/21 09:51:44;;;;;;;27.50;16.23;;;11.80;57.90;;;;;;5022130;28;20186;-90
2022/03/21 09:54:11;;;;;;;30.98;18.30;;;11.80;57.60;;;;;;5040167;28;20193;-89
2022/03/21 09:56:39;;;;;;;28.90;18.13;;;11.70;58.10;;;;;;5025125;28;20181;-89
2022/03/21 09:59:06;;;;;;;28.20;17.92;;;11.80;58.30;;;;;;5024907;28;20245;-89
2022/03/21 10:01:37;;;;;;;31.27;17.40;;;12.20;58.00;;;;;;5023170;28;20788;-89
2022/03/21 10:04:03;;;;;;;24.13;15.55;;;12.30;58.00;;;;;;5024845;28;20174;-89
2022/03/21 10:06:35;;;;;;;25.17;15.18;;;12.20;57.00;;;;;;5010191;28;20211;-90
2022/03/21 10:09:38;;;;;;;31.63;17.42;;;12.30;57.50;;;;;;5016311;28;20259;-89
2022/03/21 10:12:10;;;;;;;27.58;16.25;;;12.60;57.30;;;;;;5012739;28;20185;-90
2022/03/21 10:14:37;;;;;;;27.67;16.27;;;12.40;56.90;;;;;;5033561;28;20687;-90
2022/03/21 10:17:15;;;;;;;25.35;15.40;;;12.50;57.10;;;;;;5015675;28;20209;-90
2022/03/21 10:19:49;;;;;;;29.63;15.73;;;12.80;56.80;;;;;;5032156;28;20170;-89
2022/03/21 10:22:21;;;;;;;37.00;17.60;;;12.90;56.70;;;;;;5015256;28;20185;-89
2022/03/21 10:25:05;;;;;;;27.45;17.50;;;12.80;56.40;;;;;;5032318;28;20197;-89
2022/03/21 10:27:37;;;;;;;25.02;15.63;;;12.80;56.80;;;;;;5000358;28;20214;-89
2022/03/21 10:30:10;;;;;;;39.03;17.98;;;13.10;56.60;;;;;;5031466;28;20201;-90
2022/03/21 10:32:58;;;;;;;22.77;14.02;;;13.20;56.00;;;;;;5033254;28;20173;-89
2022/03/21 10:35:51;;;;;;;28.25;15.23;;;13.10;56.00;;;;;;5017475;28;21747;-89
2022/03/21 10:38:33;;;;;;;30.33;15.75;;;13.30;56.40;;;;;;5023218;28;20205;-89
2022/03/21 10:41:10;;;;;;;24.83;15.52;;;13.50;56.30;;;;;;5034698;28;20182;-89
2022/03/21 10:43:37;;;;;;;32.50;16.05;;;13.70;55.80;;;;;;5033074;28;20704;-89
2022/03/21 10:46:10;;;;;;;33.10;16.73;;;13.70;55.40;;;;;;4999352;28;20192;-89
2022/03/21 10:48:35;;;;;;;23.17;15.13;;;13.50;55.70;;;;;;5023861;28;20300;-89
2022/03/21 10:51:04;;;;;;;27.40;16.40;;;13.70;56.40;;;;;;5018747;28;20315;-90
2022/03/21 10:53:38;;;;;;;26.15;17.27;;;13.80;56.10;;;;;;5036000;28;20424;-89
2022/03/21 10:56:11;;;;;;;21.85;14.30;;;14.10;56.00;;;;;;5030442;28;20201;-89
2022/03/21 10:58:42;;;;;;;37.25;16.70;;;14.20;56.10;;;;;;5018166;28;20717;-88
2022/03/21 11:01:17;;;;;;;55.83;18.42;;;14.20;55.70;;;;;;5015233;28;20677;-89
2022/03/21 11:03:46;;;;;;;35.22;17.67;;;14.10;55.80;;;;;;5014419;28;20180;-88
2022/03/21 11:06:13;;;;;;;30.17;16.40;;;14.30;55.90;;;;;;5014919;28;20201;-89
2022/03/21 11:08:39;;;;;;;26.90;16.55;;;14.40;55.50;;;;;;5017030;28;20208;-88
2022/03/21 11:11:07;;;;;;;27.52;16.63;;;14.50;55.40;;;;;;5019540;28;20181;-88
2022/03/21 11:13:33;;;;;;;25.00;16.10;;;14.60;55.10;;;;;;5019797;28;20316;-88
2022/03/21 11:15:59;;;;;;;26.07;16.83;;;14.20;55.20;;;;;;5001389;28;20653;-88
2022/03/21 11:18:29;;;;;;;23.45;16.10;;;14.40;55.60;;;;;;5021202;28;20436;-88
2022/03/21 11:20:59;;;;;;;30.70;17.60;;;14.70;55.50;;;;;;5020229;28;20301;-88
2022/03/21 11:23:25;;;;;;;26.55;16.48;;;14.90;55.30;;;;;;5022140;28;20196;-88
2022/03/21 11:26:11;;;;;;;32.60;17.65;;;14.90;54.40;;;;;;5019280;28;20193;-88
2022/03/21 11:28:56;;;;;;;32.83;17.38;;;15.00;54.60;;;;;;5035224;28;20202;-88
2022/03/21 11:31:42;;;;;;;26.13;16.10;;;14.90;54.60;;;;;;5035318;28;20178;-88
2022/03/21 11:34:26;;;;;;;30.83;15.80;;;15.00;54.70;;;;;;5017035;28;20205;-88
2022/03/21 11:36:55;;;;;;;33.40;17.17;;;15.20;53.90;;;;;;5016634;28;20201;-88
2022/03/21 11:39:21;;;;;;;29.20;16.98;;;15.10;53.80;;;;;;5034393;28;20533;-88
2022/03/21 11:42:03;;;;;;;23.65;16.08;;;15.40;53.70;;;;;;5017774;28;20204;-88
2022/03/21 11:44:29;;;;;;;27.50;17.58;;;15.50;53.60;;;;;;5044559;28;20668;-88
2022/03/21 11:47:26;;;;;;;30.67;17.10;;;15.60;53.30;;;;;;5018296;28;20198;-87
2022/03/21 11:49:55;;;;;;;30.05;18.60;;;15.70;53.20;;;;;;5019753;28;20417;-88
2022/03/21 11:52:22;;;;;;;26.13;16.17;;;15.70;52.90;;;;;;5017869;28;20197;-88
2022/03/21 11:54:49;;;;;;;29.00;16.10;;;15.70;52.80;;;;;;5016580;28;20284;-88
2022/03/21 11:57:17;;;;;;;27.35;16.65;;;15.80;52.80;;;;;;5035521;28;20279;-88
2022/03/21 11:59:46;;;;;;;25.30;17.05;;;15.70;53.10;;;;;;5016581;28;20178;-89
2022/03/21 12:02:11;;;;;;;35.53;16.13;;;15.60;52.70;;;;;;5015951;28;20178;-87
2022/03/21 12:04:39;;;;;;;25.23;16.10;;;15.60;52.80;;;;;;5033814;28;20368;-88
2022/03/21 12:07:14;;;;;;;24.38;15.65;;;15.70;52.90;;;;;;5015980;28;20193;-88
2022/03/21 12:09:48;;;;;;;24.70;16.30;;;15.70;52.50;;;;;;5016198;28;20178;-89
2022/03/21 12:12:18;;;;;;;31.65;17.50;;;15.80;52.30;;;;;;5015990;28;20178;-88
2022/03/21 12:14:48;;;;;;;21.70;14.05;;;15.80;51.90;;;;;;5015892;28;20170;-88
2022/03/21 12:17:15;;;;;;;21.65;15.57;;;16.00;51.70;;;;;;5015921;28;20198;-88
2022/03/21 12:19:55;;;;;;;20.65;12.70;;;16.20;51.30;;;;;;5015967;28;20209;-89
2022/03/21 12:22:30;;;;;;;19.95;13.77;;;16.30;50.90;;;;;;5015840;28;20173;-88
2022/03/21 12:25:04;;;;;;;33.78;15.07;;;16.50;50.70;;;;;;5015011;28;20597;-88
2022/03/21 12:27:43;;;;;;;25.30;15.15;;;16.60;50.20;;;;;;5032611;28;20197;-88
2022/03/21 12:30:20;;;;;;;24.35;15.07;;;16.30;50.10;;;;;;5014886;28;20181;-89
2022/03/21 12:33:09;;;;;;;23.10;14.27;;;16.50;50.10;;;;;;5015822;28;20174;-88
2022/03/21 12:35:35;;;;;;;20.20;15.18;;;16.80;50.10;;;;;;4988556;28;20178;-87
2022/03/21 12:38:22;;;;;;;28.73;16.23;;;16.40;49.60;;;;;;4996031;28;20198;-89
2022/03/21 12:40:51;;;;;;;34.47;16.27;;;16.40;50.10;;;;;;4996084;28;20183;-88
2022/03/21 12:43:21;;;;;;;37.65;15.88;;;16.30;50.30;;;;;;5013115;28;20516;-88
2022/03/21 12:45:49;;;;;;;25.35;14.40;;;16.40;50.40;;;;;;4995142;28;20217;-88
2022/03/21 12:48:17;;;;;;;33.25;15.05;;;16.50;50.50;;;;;;4996762;28;20223;-88
2022/03/21 12:50:46;;;;;;;30.80;14.63;;;16.60;50.40;;;;;;4996262;28;20229;-88
2022/03/21 12:53:15;;;;;;;36.33;16.33;;;16.60;50.00;;;;;;4995377;28;20217;-88
2022/03/21 12:55:41;;;;;;;23.02;14.35;;;16.70;49.50;;;;;;4996907;28;20265;-89
2022/03/21 12:58:12;;;;;;;26.10;14.60;;;16.70;49.30;;;;;;4995801;28;20238;-88
2022/03/21 13:00:40;;;;;;;28.08;14.63;;;16.90;49.20;;;;;;4996521;28;20217;-88